createdAt,value
2018-06-15T00:00:36.333Z,1009.01
2018-06-15T00:01:36.231Z,1008.99
2018-06-15T00:02:36.139Z,1009.05
2018-06-15T00:03:36.038Z,1009.11
2018-06-15T00:04:35.945Z,1009.21
2018-06-15T00:05:35.854Z,1009.28
2018-06-15T00:06:35.751Z,1009.29
2018-06-15T00:07:35.659Z,1009.35
2018-06-15T00:08:35.569Z,1009.40
2018-06-15T00:09:35.466Z,1009.39
2018-06-15T00:10:35.374Z,1009.43
2018-06-15T00:11:35.271Z,1009.41
2018-06-15T00:12:35.181Z,1009.39
2018-06-15T00:13:35.091Z,1009.41
2018-06-15T00:14:34.986Z,1009.41
2018-06-15T00:15:34.896Z,1009.45
2018-06-15T00:16:34.794Z,1009.41
2018-06-15T00:17:34.701Z,1009.42
2018-06-15T00:18:34.611Z,1009.45
2018-06-15T00:19:34.508Z,1009.49
2018-06-15T00:20:34.416Z,1009.52
2018-06-15T00:21:34.314Z,1009.52
2018-06-15T00:22:34.224Z,1009.51
2018-06-15T00:23:34.130Z,1009.54
2018-06-15T00:24:34.028Z,1009.53
2018-06-15T00:25:33.939Z,1009.58
2018-06-15T00:26:33.835Z,1009.59
2018-06-15T00:27:33.743Z,1009.60
2018-06-15T00:28:33.652Z,1009.59
2018-06-15T00:29:33.561Z,1009.59
2018-06-15T00:30:33.458Z,1009.61
2018-06-15T00:31:33.357Z,1009.61
2018-06-15T00:32:33.266Z,1009.60
2018-06-15T00:33:33.173Z,1009.64
2018-06-15T00:34:33.070Z,1009.62
2018-06-15T00:35:32.983Z,1009.58
2018-06-15T00:36:32.888Z,1009.60
2018-06-15T00:37:32.786Z,1009.61
2018-06-15T00:38:32.696Z,1009.61
2018-06-15T00:39:32.592Z,1009.59
2018-06-15T00:40:32.501Z,1009.61
2018-06-15T00:41:32.410Z,1009.62
2018-06-15T00:42:32.307Z,1009.62
2018-06-15T00:43:32.215Z,1009.65
2018-06-15T00:44:32.112Z,1009.70
2018-06-15T00:45:32.023Z,1009.68
2018-06-15T00:46:31.931Z,1009.66
2018-06-15T00:47:31.828Z,1009.71
2018-06-15T00:48:31.737Z,1009.66
2018-06-15T00:49:31.680Z,1009.69
2018-06-15T00:50:31.542Z,1009.68
2018-06-15T00:51:31.456Z,1009.69
2018-06-15T00:52:31.349Z,1009.72
2018-06-15T00:53:31.257Z,1009.75
2018-06-15T00:54:31.154Z,1009.72
2018-06-15T00:55:31.063Z,1009.76
2018-06-15T00:56:30.976Z,1009.71
2018-06-15T00:57:30.868Z,1009.74
2018-06-15T00:58:30.779Z,1009.76
2018-06-15T00:59:30.676Z,1009.77
2018-06-15T01:00:30.834Z,1009.82
2018-06-15T01:01:30.493Z,1009.83
2018-06-15T01:02:30.391Z,1009.82
2018-06-15T01:03:30.299Z,1009.78
2018-06-15T01:04:30.195Z,1009.79
2018-06-15T01:05:30.107Z,1009.83
2018-06-15T01:06:30.015Z,1009.85
2018-06-15T01:07:29.911Z,1009.86
2018-06-15T01:08:29.821Z,1009.87
2018-06-15T01:09:29.718Z,1009.90
2018-06-15T01:10:29.625Z,1009.86
2018-06-15T01:11:29.538Z,1009.87
2018-06-15T01:12:29.433Z,1009.90
2018-06-15T01:13:29.341Z,1009.87
2018-06-15T01:14:29.238Z,1009.91
2018-06-15T01:15:29.151Z,1009.86
2018-06-15T01:16:29.057Z,1009.92
2018-06-15T01:17:28.953Z,1009.90
2018-06-15T01:18:28.887Z,1009.91
2018-06-15T01:19:28.759Z,1009.90
2018-06-15T01:20:28.918Z,1009.90
2018-06-15T01:21:28.577Z,1009.95
2018-06-15T01:22:28.475Z,1009.91
2018-06-15T01:23:28.383Z,1009.91
2018-06-15T01:24:28.281Z,1009.91
2018-06-15T01:25:28.189Z,1009.91
2018-06-15T01:26:28.098Z,1009.96
2018-06-15T01:27:27.995Z,1009.94
2018-06-15T01:28:27.905Z,1009.95
2018-06-15T01:29:27.813Z,1009.96
2018-06-15T01:30:27.710Z,1009.96
2018-06-15T01:31:27.620Z,1009.94
2018-06-15T01:32:27.517Z,1009.92
2018-06-15T01:33:27.425Z,1009.97
2018-06-15T01:34:27.326Z,1009.95
2018-06-15T01:35:27.232Z,1009.97
2018-06-15T01:36:27.140Z,1009.92
2018-06-15T01:37:27.037Z,1009.93
2018-06-15T01:38:26.947Z,1009.89
2018-06-15T01:39:26.856Z,1009.94
2018-06-15T01:40:26.752Z,1009.95
2018-06-15T01:41:26.665Z,1009.93
2018-06-15T01:42:26.558Z,1009.94
2018-06-15T01:43:26.467Z,1009.93
2018-06-15T01:44:26.377Z,1009.91
2018-06-15T01:45:26.273Z,1009.91
2018-06-15T01:46:26.182Z,1009.89
2018-06-15T01:47:26.094Z,1009.88
2018-06-15T01:48:25.988Z,1009.89
2018-06-15T01:49:25.897Z,1009.88
2018-06-15T01:50:26.093Z,1009.90
2018-06-15T01:51:25.703Z,1009.92
2018-06-15T01:52:25.612Z,1009.90
2018-06-15T01:53:25.508Z,1009.89
2018-06-15T01:54:25.419Z,1009.89
2018-06-15T01:55:25.326Z,1009.90
2018-06-15T01:56:25.223Z,1009.88
2018-06-15T01:57:25.138Z,1009.89
2018-06-15T01:58:25.031Z,1009.95
2018-06-15T01:59:24.942Z,1009.90
2018-06-15T02:00:24.849Z,1009.90
2018-06-15T02:01:24.888Z,1009.89
2018-06-15T02:02:24.654Z,1009.85
2018-06-15T02:03:24.564Z,1009.92
2018-06-15T02:04:24.462Z,1009.89
2018-06-15T02:05:24.369Z,1009.92
2018-06-15T02:06:24.266Z,1009.92
2018-06-15T02:07:24.176Z,1009.96
2018-06-15T02:08:24.084Z,1009.89
2018-06-15T02:09:23.981Z,1009.97
2018-06-15T02:10:23.899Z,1009.93
2018-06-15T02:11:23.788Z,1009.90
2018-06-15T02:12:23.696Z,1009.95
2018-06-15T02:13:23.640Z,1009.99
2018-06-15T02:14:23.503Z,1009.98
2018-06-15T02:15:23.412Z,1009.97
2018-06-15T02:16:23.322Z,1009.98
2018-06-15T02:17:23.217Z,1010.00
2018-06-15T02:18:23.127Z,1010.02
2018-06-15T02:19:23.024Z,1009.93
2018-06-15T02:20:23.183Z,1010.00
2018-06-15T02:21:22.841Z,1009.97
2018-06-15T02:22:22.740Z,1009.98
2018-06-15T02:23:22.649Z,1009.99
2018-06-15T02:24:22.556Z,1010.00
2018-06-15T02:25:22.453Z,1009.96
2018-06-15T02:26:22.362Z,1009.99
2018-06-15T02:27:22.274Z,1009.96
2018-06-15T02:28:22.168Z,1009.98
2018-06-15T02:29:22.078Z,1010.00
2018-06-15T02:30:21.975Z,1010.02
2018-06-15T02:31:21.884Z,1009.99
2018-06-15T02:32:21.794Z,1010.02
2018-06-15T02:33:21.691Z,1010.00
2018-06-15T02:34:21.599Z,1010.01
2018-06-15T02:35:21.509Z,1010.02
2018-06-15T02:36:21.405Z,1010.02
2018-06-15T02:37:21.319Z,1010.04
2018-06-15T02:38:21.217Z,1010.04
2018-06-15T02:39:21.120Z,1010.06
2018-06-15T02:40:21.028Z,1010.09
2018-06-15T02:41:20.926Z,1010.09
2018-06-15T02:42:20.841Z,1010.09
2018-06-15T02:43:20.744Z,1010.11
2018-06-15T02:44:20.640Z,1010.10
2018-06-15T02:45:20.583Z,1010.07
2018-06-15T02:46:20.458Z,1010.15
2018-06-15T02:47:20.357Z,1010.14
2018-06-15T02:48:20.269Z,1010.14
2018-06-15T02:49:20.174Z,1010.12
2018-06-15T02:50:20.071Z,1010.16
2018-06-15T02:51:19.980Z,1010.11
2018-06-15T02:52:19.888Z,1010.15
2018-06-15T02:53:19.785Z,1010.16
2018-06-15T02:54:19.696Z,1010.19
2018-06-15T02:55:19.604Z,1010.21
2018-06-15T02:56:19.501Z,1010.23
2018-06-15T02:57:19.411Z,1010.21
2018-06-15T02:58:19.307Z,1010.24
2018-06-15T02:59:19.215Z,1010.26
2018-06-15T03:00:19.125Z,1010.28
2018-06-15T03:01:19.022Z,1010.26
2018-06-15T03:02:18.931Z,1010.26
2018-06-15T03:03:18.828Z,1010.24
2018-06-15T03:04:18.736Z,1010.29
2018-06-15T03:05:18.681Z,1010.27
2018-06-15T03:06:18.542Z,1010.27
2018-06-15T03:07:18.456Z,1010.27
2018-06-15T03:08:18.362Z,1010.27
2018-06-15T03:09:18.258Z,1010.30
2018-06-15T03:10:18.167Z,1010.27
2018-06-15T03:11:18.075Z,1010.30
2018-06-15T03:12:17.972Z,1010.33
2018-06-15T03:13:17.882Z,1010.34
2018-06-15T03:14:17.791Z,1010.35
2018-06-15T03:15:17.687Z,1010.36
2018-06-15T03:16:17.597Z,1010.38
2018-06-15T03:17:17.494Z,1010.38
2018-06-15T03:18:17.402Z,1010.40
2018-06-15T03:19:17.313Z,1010.39
2018-06-15T03:20:17.209Z,1010.41
2018-06-15T03:21:17.121Z,1010.38
2018-06-15T03:22:17.027Z,1010.37
2018-06-15T03:23:16.926Z,1010.37
2018-06-15T03:24:16.832Z,1010.37
2018-06-15T03:25:17.042Z,1010.33
2018-06-15T03:26:16.639Z,1010.35
2018-06-15T03:27:16.548Z,1010.38
2018-06-15T03:28:16.446Z,1010.36
2018-06-15T03:29:16.354Z,1010.38
2018-06-15T03:30:16.262Z,1010.36
2018-06-15T03:31:16.160Z,1010.32
2018-06-15T03:32:16.070Z,1010.34
2018-06-15T03:33:15.977Z,1010.36
2018-06-15T03:34:15.874Z,1010.38
2018-06-15T03:35:15.789Z,1010.38
2018-06-15T03:36:15.693Z,1010.37
2018-06-15T03:37:15.592Z,1010.36
2018-06-15T03:38:15.499Z,1010.34
2018-06-15T03:39:15.407Z,1010.39
2018-06-15T03:40:15.304Z,1010.39
2018-06-15T03:41:15.221Z,1010.36
2018-06-15T03:42:15.110Z,1010.40
2018-06-15T03:43:15.019Z,1010.39
2018-06-15T03:44:14.929Z,1010.38
2018-06-15T03:45:14.829Z,1010.40
2018-06-15T03:46:14.734Z,1010.33
2018-06-15T03:47:14.644Z,1010.38
2018-06-15T03:48:14.540Z,1010.43
2018-06-15T03:49:14.496Z,1010.44
2018-06-15T03:50:14.360Z,1010.42
2018-06-15T03:51:14.257Z,1010.45
2018-06-15T03:52:14.164Z,1010.48
2018-06-15T03:53:14.075Z,1010.49
2018-06-15T03:54:13.972Z,1010.50
2018-06-15T03:55:14.131Z,1010.52
2018-06-15T03:56:13.790Z,1010.49
2018-06-15T03:57:13.686Z,1010.56
2018-06-15T03:58:13.595Z,1010.51
2018-06-15T03:59:13.494Z,1010.50
2018-06-15T04:00:13.402Z,1010.48
2018-06-15T04:01:13.323Z,1010.48
2018-06-15T04:02:13.220Z,1010.51
2018-06-15T04:03:13.118Z,1010.50
2018-06-15T04:04:13.025Z,1010.53
2018-06-15T04:05:13.235Z,1010.49
2018-06-15T04:06:12.833Z,1010.50
2018-06-15T04:07:12.743Z,1010.47
2018-06-15T04:08:12.651Z,1010.49
2018-06-15T04:09:12.547Z,1010.52
2018-06-15T04:10:12.455Z,1010.48
2018-06-15T04:11:12.365Z,1010.54
2018-06-15T04:12:12.263Z,1010.51
2018-06-15T04:13:12.214Z,1010.54
2018-06-15T04:14:12.080Z,1010.55
2018-06-15T04:15:11.976Z,1010.51
2018-06-15T04:16:11.888Z,1010.48
2018-06-15T04:17:11.795Z,1010.53
2018-06-15T04:18:11.694Z,1010.56
2018-06-15T04:19:11.613Z,1010.52
2018-06-15T04:20:11.511Z,1010.54
2018-06-15T04:21:11.407Z,1010.52
2018-06-15T04:22:11.315Z,1010.52
2018-06-15T04:23:11.225Z,1010.55
2018-06-15T04:24:11.122Z,1010.51
2018-06-15T04:25:11.031Z,1010.54
2018-06-15T04:26:10.941Z,1010.53
2018-06-15T04:27:10.849Z,1010.57
2018-06-15T04:28:10.745Z,1010.52
2018-06-15T04:29:10.655Z,1010.53
2018-06-15T04:30:10.564Z,1010.56
2018-06-15T04:31:10.461Z,1010.60
2018-06-15T04:32:10.371Z,1010.56
2018-06-15T04:33:10.279Z,1010.59
2018-06-15T04:34:10.176Z,1010.59
2018-06-15T04:35:10.086Z,1010.60
2018-06-15T04:36:09.994Z,1010.63
2018-06-15T04:37:09.904Z,1010.61
2018-06-15T04:38:09.803Z,1010.60
2018-06-15T04:39:09.709Z,1010.62
2018-06-15T04:40:09.870Z,1010.64
2018-06-15T04:41:09.516Z,1010.67
2018-06-15T04:42:09.425Z,1010.69
2018-06-15T04:43:09.334Z,1010.69
2018-06-15T04:44:09.242Z,1010.66
2018-06-15T04:45:09.141Z,1010.67
2018-06-15T04:46:09.049Z,1010.70
2018-06-15T04:47:08.959Z,1010.62
2018-06-15T04:48:08.869Z,1010.63
2018-06-15T04:49:08.764Z,1010.64
2018-06-15T04:50:08.673Z,1010.65
2018-06-15T04:51:08.586Z,1010.66
2018-06-15T04:52:08.482Z,1010.61
2018-06-15T04:53:08.390Z,1010.66
2018-06-15T04:54:08.298Z,1010.68
2018-06-15T04:55:08.206Z,1010.63
2018-06-15T04:56:08.104Z,1010.65
2018-06-15T04:57:08.013Z,1010.62
2018-06-15T04:58:07.921Z,1010.65
2018-06-15T04:59:07.832Z,1010.68
2018-06-15T05:00:07.979Z,1010.68
2018-06-15T05:01:07.638Z,1010.65
2018-06-15T05:02:07.547Z,1010.63
2018-06-15T05:03:07.455Z,1010.66
2018-06-15T05:04:07.352Z,1010.65
2018-06-15T05:05:07.263Z,1010.69
2018-06-15T05:06:07.175Z,1010.69
2018-06-15T05:07:07.079Z,1010.69
2018-06-15T05:08:06.976Z,1010.70
2018-06-15T05:09:06.942Z,1010.66
2018-06-15T05:10:06.798Z,1010.70
2018-06-15T05:11:06.706Z,1010.70
2018-06-15T05:12:06.602Z,1010.70
2018-06-15T05:13:06.512Z,1010.73
2018-06-15T05:14:06.418Z,1010.74
2018-06-15T05:15:06.329Z,1010.75
2018-06-15T05:16:06.239Z,1010.76
2018-06-15T05:17:06.134Z,1010.76
2018-06-15T05:18:06.044Z,1010.75
2018-06-15T05:19:05.952Z,1010.74
2018-06-15T05:20:06.122Z,1010.81
2018-06-15T05:21:05.773Z,1010.78
2018-06-15T05:22:05.667Z,1010.72
2018-06-15T05:23:05.577Z,1010.75
2018-06-15T05:24:05.485Z,1010.78
2018-06-15T05:25:05.395Z,1010.79
2018-06-15T05:26:05.304Z,1010.82
2018-06-15T05:27:05.201Z,1010.77
2018-06-15T05:28:05.111Z,1010.84
2018-06-15T05:29:05.019Z,1010.86
2018-06-15T05:30:04.946Z,1010.84
2018-06-15T05:31:04.851Z,1010.85
2018-06-15T05:32:04.734Z,1010.85
2018-06-15T05:33:04.644Z,1010.82
2018-06-15T05:34:04.552Z,1010.85
2018-06-15T05:35:04.463Z,1010.85
2018-06-15T05:36:04.370Z,1010.82
2018-06-15T05:37:04.280Z,1010.82
2018-06-15T05:38:04.178Z,1010.87
2018-06-15T05:39:04.086Z,1010.80
2018-06-15T05:40:03.995Z,1010.85
2018-06-15T05:41:03.904Z,1010.81
2018-06-15T05:42:03.813Z,1010.84
2018-06-15T05:43:03.711Z,1010.82
2018-06-15T05:44:03.618Z,1010.85
2018-06-15T05:45:03.529Z,1010.90
2018-06-15T05:46:03.438Z,1010.89
2018-06-15T05:47:03.347Z,1010.90
2018-06-15T05:48:03.256Z,1010.90
2018-06-15T05:49:03.154Z,1010.96
2018-06-15T05:50:03.063Z,1010.99
2018-06-15T05:51:02.971Z,1011.00
2018-06-15T05:52:02.883Z,1011.02
2018-06-15T05:53:02.789Z,1011.00
2018-06-15T05:54:02.703Z,1010.98
2018-06-15T05:55:02.597Z,1011.01
2018-06-15T05:56:02.505Z,1011.04
2018-06-15T05:57:02.415Z,1011.04
2018-06-15T05:58:02.323Z,1011.05
2018-06-15T05:59:02.233Z,1011.02
2018-06-15T06:00:02.154Z,1011.05
2018-06-15T06:01:02.055Z,1011.01
2018-06-15T06:02:01.949Z,1011.03
2018-06-15T06:03:01.856Z,1011.03
2018-06-15T06:04:01.850Z,1011.04
2018-06-15T06:05:01.676Z,1011.04
2018-06-15T06:06:01.585Z,1011.05
2018-06-15T06:07:01.494Z,1011.07
2018-06-15T06:08:01.403Z,1011.04
2018-06-15T06:09:01.301Z,1011.09
2018-06-15T06:10:01.208Z,1011.05
2018-06-15T06:11:01.118Z,1011.04
2018-06-15T06:12:01.026Z,1011.10
2018-06-15T06:13:00.937Z,1011.09
2018-06-15T06:14:00.844Z,1011.08
2018-06-15T06:15:00.754Z,1011.10
2018-06-15T06:16:00.652Z,1011.10
2018-06-15T06:17:00.559Z,1011.08
2018-06-15T06:18:00.473Z,1011.09
2018-06-15T06:19:00.378Z,1011.12
2018-06-15T06:20:00.347Z,1011.13
2018-06-15T06:21:00.196Z,1011.12
2018-06-15T06:22:00.107Z,1011.13
2018-06-15T06:23:00.017Z,1011.13
2018-06-15T06:23:59.913Z,1011.16
2018-06-15T06:25:00.074Z,1011.16
2018-06-15T06:25:59.731Z,1011.17
2018-06-15T06:26:59.641Z,1011.14
2018-06-15T06:27:59.548Z,1011.20
2018-06-15T06:28:59.459Z,1011.25
2018-06-15T06:29:59.367Z,1011.24
2018-06-15T06:30:59.276Z,1011.19
2018-06-15T06:31:59.185Z,1011.25
2018-06-15T06:32:59.095Z,1011.25
2018-06-15T06:33:58.991Z,1011.26
2018-06-15T06:34:58.900Z,1011.27
2018-06-15T06:35:58.809Z,1011.26
2018-06-15T06:36:58.725Z,1011.28
2018-06-15T06:37:58.694Z,1011.29
2018-06-15T06:38:58.536Z,1011.34
2018-06-15T06:39:58.448Z,1011.35
2018-06-15T06:40:58.355Z,1011.34
2018-06-15T06:41:58.265Z,1011.34
2018-06-15T06:42:58.173Z,1011.40
2018-06-15T06:43:58.073Z,1011.40
2018-06-15T06:44:58.230Z,1011.41
2018-06-15T06:45:57.888Z,1011.41
2018-06-15T06:46:57.798Z,1011.41
2018-06-15T06:47:57.707Z,1011.42
2018-06-15T06:48:57.617Z,1011.46
2018-06-15T06:49:57.528Z,1011.51
2018-06-15T06:50:57.436Z,1011.50
2018-06-15T06:51:57.344Z,1011.52
2018-06-15T06:52:57.254Z,1011.53
2018-06-15T06:53:57.163Z,1011.54
2018-06-15T06:54:57.072Z,1011.55
2018-06-15T06:55:56.981Z,1011.52
2018-06-15T06:56:56.879Z,1011.54
2018-06-15T06:57:56.789Z,1011.56
2018-06-15T06:58:56.696Z,1011.54
2018-06-15T06:59:56.860Z,1011.53
2018-06-15T07:00:56.514Z,1011.54
2018-06-15T07:01:56.424Z,1011.56
2018-06-15T07:02:56.338Z,1011.52
2018-06-15T07:03:56.243Z,1011.51
2018-06-15T07:04:56.151Z,1011.54
2018-06-15T07:05:56.061Z,1011.53
2018-06-15T07:06:55.970Z,1011.56
2018-06-15T07:07:55.879Z,1011.54
2018-06-15T07:08:55.789Z,1011.55
2018-06-15T07:09:55.935Z,1011.57
2018-06-15T07:10:55.595Z,1011.63
2018-06-15T07:11:55.502Z,1011.57
2018-06-15T07:12:55.413Z,1011.59
2018-06-15T07:13:55.324Z,1011.64
2018-06-15T07:14:55.231Z,1011.63
2018-06-15T07:15:55.144Z,1011.61
2018-06-15T07:16:55.055Z,1011.64
2018-06-15T07:17:54.958Z,1011.67
2018-06-15T07:18:54.869Z,1011.67
2018-06-15T07:19:54.776Z,1011.68
2018-06-15T07:20:54.687Z,1011.66
2018-06-15T07:21:54.594Z,1011.67
2018-06-15T07:22:54.493Z,1011.68
2018-06-15T07:23:54.409Z,1011.72
2018-06-15T07:24:54.310Z,1011.70
2018-06-15T07:25:54.220Z,1011.74
2018-06-15T07:26:54.128Z,1011.73
2018-06-15T07:27:54.039Z,1011.72
2018-06-15T07:28:53.946Z,1011.72
2018-06-15T07:29:53.856Z,1011.73
2018-06-15T07:30:53.765Z,1011.77
2018-06-15T07:31:53.676Z,1011.76
2018-06-15T07:32:53.584Z,1011.77
2018-06-15T07:33:53.494Z,1011.77
2018-06-15T07:34:53.416Z,1011.80
2018-06-15T07:35:53.312Z,1011.75
2018-06-15T07:36:53.220Z,1011.76
2018-06-15T07:37:53.120Z,1011.81
2018-06-15T07:38:53.038Z,1011.82
2018-06-15T07:39:52.937Z,1011.82
2018-06-15T07:40:52.845Z,1011.88
2018-06-15T07:41:52.754Z,1011.85
2018-06-15T07:42:52.664Z,1011.85
2018-06-15T07:43:52.572Z,1011.82
2018-06-15T07:44:52.482Z,1011.84
2018-06-15T07:45:52.390Z,1011.87
2018-06-15T07:46:52.301Z,1011.86
2018-06-15T07:47:52.222Z,1011.89
2018-06-15T07:48:52.118Z,1011.92
2018-06-15T07:49:52.028Z,1011.88
2018-06-15T07:50:51.937Z,1011.86
2018-06-15T07:51:51.848Z,1011.90
2018-06-15T07:52:51.756Z,1011.88
2018-06-15T07:53:51.664Z,1011.92
2018-06-15T07:54:51.573Z,1011.92
2018-06-15T07:55:51.483Z,1011.94
2018-06-15T07:56:51.393Z,1011.96
2018-06-15T07:57:51.301Z,1011.97
2018-06-15T07:58:51.222Z,1011.96
2018-06-15T07:59:51.133Z,1011.97
2018-06-15T08:00:51.040Z,1011.97
2018-06-15T08:01:50.950Z,1011.95
2018-06-15T08:02:50.858Z,1011.97
2018-06-15T08:03:50.769Z,1011.94
2018-06-15T08:04:50.677Z,1011.95
2018-06-15T08:05:50.587Z,1011.98
2018-06-15T08:06:50.495Z,1011.96
2018-06-15T08:07:50.406Z,1011.98
2018-06-15T08:08:50.315Z,1011.99
2018-06-15T08:09:50.238Z,1012.01
2018-06-15T08:10:50.146Z,1011.98
2018-06-15T08:11:50.062Z,1011.97
2018-06-15T08:12:49.962Z,1011.98
2018-06-15T08:13:49.872Z,1012.00
2018-06-15T08:14:49.782Z,1012.03
2018-06-15T08:15:49.735Z,1011.99
2018-06-15T08:16:49.612Z,1012.02
2018-06-15T08:17:49.524Z,1012.03
2018-06-15T08:18:49.431Z,1011.99
2018-06-15T08:19:49.341Z,1012.03
2018-06-15T08:20:49.253Z,1012.03
2018-06-15T08:21:49.159Z,1012.00
2018-06-15T08:22:49.069Z,1012.04
2018-06-15T08:23:48.990Z,1012.06
2018-06-15T08:24:48.900Z,1012.04
2018-06-15T08:25:48.807Z,1012.07
2018-06-15T08:26:48.717Z,1012.06
2018-06-15T08:27:48.677Z,1012.12
2018-06-15T08:28:48.536Z,1012.06
2018-06-15T08:29:48.445Z,1012.08
2018-06-15T08:30:48.365Z,1012.08
2018-06-15T08:31:48.275Z,1012.13
2018-06-15T08:32:48.184Z,1012.08
2018-06-15T08:33:48.104Z,1012.07
2018-06-15T08:34:48.003Z,1012.05
2018-06-15T08:35:47.913Z,1012.08
2018-06-15T08:36:47.834Z,1012.05
2018-06-15T08:37:47.751Z,1012.07
2018-06-15T08:38:47.653Z,1012.07
2018-06-15T08:39:47.561Z,1012.06
2018-06-15T08:40:47.471Z,1012.09
2018-06-15T08:41:47.382Z,1012.11
2018-06-15T08:42:47.300Z,1012.10
2018-06-15T08:43:47.211Z,1012.07
2018-06-15T08:44:47.120Z,1012.09
2018-06-15T08:45:47.033Z,1012.09
2018-06-15T08:46:46.938Z,1012.09
2018-06-15T08:47:46.849Z,1012.09
2018-06-15T08:48:46.759Z,1012.05
2018-06-15T08:49:46.719Z,1012.09
2018-06-15T08:50:46.589Z,1012.12
2018-06-15T08:51:46.496Z,1012.16
2018-06-15T08:52:46.433Z,1012.05
2018-06-15T08:53:46.315Z,1012.09
2018-06-15T08:54:46.224Z,1012.08
2018-06-15T08:55:46.147Z,1012.07
2018-06-15T08:56:46.097Z,1012.08
2018-06-15T08:57:45.964Z,1012.12
2018-06-15T08:58:45.873Z,1012.06
2018-06-15T08:59:46.033Z,1012.05
2018-06-15T09:00:45.704Z,1012.06
2018-06-15T09:01:45.629Z,1012.03
2018-06-15T09:02:45.523Z,1012.08
2018-06-15T09:03:45.431Z,1012.07
2018-06-15T09:04:45.344Z,1012.15
2018-06-15T09:05:45.263Z,1012.12
2018-06-15T09:06:45.171Z,1012.11
2018-06-15T09:07:45.082Z,1012.07
2018-06-15T09:08:44.991Z,1012.06
2018-06-15T09:09:44.901Z,1012.08
2018-06-15T09:10:44.822Z,1012.09
2018-06-15T09:11:44.729Z,1012.04
2018-06-15T09:12:44.639Z,1012.05
2018-06-15T09:13:44.549Z,1012.03
2018-06-15T09:14:44.470Z,1012.03
2018-06-15T09:15:44.381Z,1011.99
2018-06-15T09:16:44.288Z,1011.99
2018-06-15T09:17:44.205Z,1011.98
2018-06-15T09:18:44.119Z,1011.99
2018-06-15T09:19:44.029Z,1012.01
2018-06-15T09:20:43.941Z,1011.91
2018-06-15T09:21:43.847Z,1011.99
2018-06-15T09:22:43.758Z,1011.96
2018-06-15T09:23:43.678Z,1012.00
2018-06-15T09:24:43.588Z,1011.96
2018-06-15T09:25:43.497Z,1011.99
2018-06-15T09:26:43.405Z,1012.04
2018-06-15T09:27:43.329Z,1011.99
2018-06-15T09:28:43.239Z,1012.05
2018-06-15T09:29:43.145Z,1012.01
2018-06-15T09:30:43.085Z,1012.08
2018-06-15T09:31:42.965Z,1012.07
2018-06-15T09:32:42.933Z,1012.02
2018-06-15T09:33:42.790Z,1012.02
2018-06-15T09:34:42.704Z,1011.96
2018-06-15T09:35:42.615Z,1012.00
2018-06-15T09:36:42.523Z,1011.99
2018-06-15T09:37:42.432Z,1011.94
2018-06-15T09:38:42.341Z,1011.99
2018-06-15T09:39:42.262Z,1012.00
2018-06-15T09:40:42.175Z,1011.99
2018-06-15T09:41:42.080Z,1012.02
2018-06-15T09:42:41.991Z,1012.00
2018-06-15T09:43:41.900Z,1012.03
2018-06-15T09:44:41.822Z,1012.09
2018-06-15T09:45:41.730Z,1012.10
2018-06-15T09:46:41.639Z,1012.10
2018-06-15T09:47:41.552Z,1012.08
2018-06-15T09:48:41.458Z,1012.06
2018-06-15T09:49:41.379Z,1012.09
2018-06-15T09:50:41.289Z,1012.11
2018-06-15T09:51:41.197Z,1012.22
2018-06-15T09:52:41.106Z,1012.21
2018-06-15T09:53:41.024Z,1012.24
2018-06-15T09:54:40.937Z,1012.22
2018-06-15T09:55:40.848Z,1012.19
2018-06-15T09:56:40.756Z,1012.14
2018-06-15T09:57:40.677Z,1012.30
2018-06-15T09:58:40.589Z,1012.19
2018-06-15T09:59:40.495Z,1012.09
2018-06-15T10:00:40.419Z,1012.12
2018-06-15T10:01:40.327Z,1012.13
2018-06-15T10:02:40.236Z,1012.28
2018-06-15T10:03:40.162Z,1012.13
2018-06-15T10:04:40.068Z,1012.06
2018-06-15T10:05:39.989Z,1012.17
2018-06-15T10:06:39.897Z,1012.18
2018-06-15T10:07:39.808Z,1012.18
2018-06-15T10:08:39.730Z,1012.20
2018-06-15T10:09:39.652Z,1012.26
2018-06-15T10:10:39.560Z,1012.27
2018-06-15T10:11:39.470Z,1012.23
2018-06-15T10:12:39.394Z,1012.17
2018-06-15T10:13:39.302Z,1012.15
2018-06-15T10:14:39.221Z,1012.14
2018-06-15T10:15:39.134Z,1012.14
2018-06-15T10:16:39.088Z,1012.15
2018-06-15T10:17:38.962Z,1012.11
2018-06-15T10:18:38.883Z,1012.12
2018-06-15T10:19:39.043Z,1012.13
2018-06-15T10:20:38.716Z,1012.15
2018-06-15T10:21:38.624Z,1012.16
2018-06-15T10:22:38.547Z,1012.18
2018-06-15T10:23:38.456Z,1012.19
2018-06-15T10:24:38.377Z,1012.27
2018-06-15T10:25:38.285Z,1012.28
2018-06-15T10:26:38.220Z,1012.26
2018-06-15T10:27:38.118Z,1012.20
2018-06-15T10:28:38.026Z,1012.21
2018-06-15T10:29:37.947Z,1012.26
2018-06-15T10:30:37.857Z,1012.26
2018-06-15T10:31:37.779Z,1012.18
2018-06-15T10:32:37.688Z,1012.19
2018-06-15T10:33:37.609Z,1012.16
2018-06-15T10:34:37.518Z,1012.15
2018-06-15T10:35:37.440Z,1012.17
2018-06-15T10:36:37.349Z,1012.22
2018-06-15T10:37:37.259Z,1012.20
2018-06-15T10:38:37.180Z,1012.19
2018-06-15T10:39:37.133Z,1012.18
2018-06-15T10:40:37.011Z,1012.18
2018-06-15T10:41:36.921Z,1012.14
2018-06-15T10:42:36.831Z,1012.13
2018-06-15T10:43:36.751Z,1012.15
2018-06-15T10:44:36.660Z,1012.16
2018-06-15T10:45:36.593Z,1012.18
2018-06-15T10:46:36.491Z,1012.17
2018-06-15T10:47:36.405Z,1012.17
2018-06-15T10:48:36.323Z,1012.14
2018-06-15T10:49:36.230Z,1012.17
2018-06-15T10:50:36.142Z,1012.15
2018-06-15T10:51:36.063Z,1012.17
2018-06-15T10:52:35.971Z,1012.16
2018-06-15T10:53:35.881Z,1012.15
2018-06-15T10:54:35.802Z,1012.21
2018-06-15T10:55:35.711Z,1012.22
2018-06-15T10:56:35.634Z,1012.21
2018-06-15T10:57:35.543Z,1012.18
2018-06-15T10:58:35.452Z,1012.13
2018-06-15T10:59:35.372Z,1012.16
2018-06-15T11:00:35.282Z,1012.14
2018-06-15T11:01:35.192Z,1012.15
2018-06-15T11:02:35.113Z,1012.11
2018-06-15T11:03:35.024Z,1012.09
2018-06-15T11:04:34.945Z,1012.13
2018-06-15T11:05:34.853Z,1012.09
2018-06-15T11:06:34.779Z,1012.05
2018-06-15T11:07:34.685Z,1012.04
2018-06-15T11:08:34.608Z,1012.08
2018-06-15T11:09:34.517Z,1012.13
2018-06-15T11:10:34.425Z,1012.08
2018-06-15T11:11:34.347Z,1012.07
2018-06-15T11:12:34.255Z,1012.02
2018-06-15T11:13:34.177Z,1011.98
2018-06-15T11:14:34.146Z,1011.98
2018-06-15T11:15:34.008Z,1011.99
2018-06-15T11:16:33.916Z,1012.05
2018-06-15T11:17:33.827Z,1012.03
2018-06-15T11:18:33.752Z,1012.00
2018-06-15T11:19:33.657Z,1011.99
2018-06-15T11:20:33.580Z,1012.01
2018-06-15T11:21:33.488Z,1012.00
2018-06-15T11:22:33.410Z,1012.07
2018-06-15T11:23:33.359Z,1012.02
2018-06-15T11:24:33.239Z,1012.01
2018-06-15T11:25:33.150Z,1012.01
2018-06-15T11:26:33.065Z,1012.02
2018-06-15T11:27:32.980Z,1011.97
2018-06-15T11:28:32.893Z,1012.05
2018-06-15T11:29:32.799Z,1012.05
2018-06-15T11:30:32.733Z,1012.02
2018-06-15T11:31:32.630Z,1012.01
2018-06-15T11:32:32.551Z,1012.02
2018-06-15T11:33:32.460Z,1011.97
2018-06-15T11:34:32.371Z,1011.99
2018-06-15T11:35:32.291Z,1011.99
2018-06-15T11:36:32.200Z,1011.97
2018-06-15T11:37:32.121Z,1011.95
2018-06-15T11:38:32.032Z,1011.93
2018-06-15T11:39:31.942Z,1011.90
2018-06-15T11:40:31.861Z,1011.92
2018-06-15T11:41:31.773Z,1011.89
2018-06-15T11:42:31.682Z,1011.88
2018-06-15T11:43:31.602Z,1011.89
2018-06-15T11:44:31.516Z,1011.92
2018-06-15T11:45:31.420Z,1011.93
2018-06-15T11:46:31.331Z,1011.94
2018-06-15T11:47:31.253Z,1011.94
2018-06-15T11:48:31.163Z,1011.94
2018-06-15T11:49:31.069Z,1011.94
2018-06-15T11:50:30.993Z,1011.89
2018-06-15T11:51:30.900Z,1011.89
2018-06-15T11:52:30.811Z,1011.87
2018-06-15T11:53:30.721Z,1011.86
2018-06-15T11:54:30.640Z,1011.91
2018-06-15T11:55:30.550Z,1011.85
2018-06-15T11:56:30.458Z,1011.83
2018-06-15T11:57:30.408Z,1011.86
2018-06-15T11:58:30.302Z,1011.86
2018-06-15T11:59:30.199Z,1011.84
2018-06-15T12:00:30.109Z,1011.85
2018-06-15T12:01:30.018Z,1011.83
2018-06-15T12:02:29.926Z,1011.84
2018-06-15T12:03:29.851Z,1011.86
2018-06-15T12:04:29.756Z,1011.84